Track Богданов Андрей

Time Latitude Longitude Accuracy (66% radius in meters) Altitude (meters) Speed (km/hour) Bearing (degrees) Battery (%) GPS flag
11:44:24 55.929813 38.064223 0 0 0 0 1 delete
11:44:23 55.929806 38.064224 0 0 0 0 1 delete
11:44:22 55.929798 38.064224 0 0 0 0 1 delete
11:44:21 55.929790 38.064223 0 0 0 0 1 delete
11:44:20 55.929788 38.064218 0 0 0 0 1 delete
11:44:19 55.929785 38.064221 0 0 0 0 1 delete
11:44:18 55.929783 38.064223 0 0 0 0 1 delete
11:44:17 55.929781 38.064233 0 0 0 0 1 delete
11:44:16 55.929783 38.064236 0 0 0 0 1 delete
11:44:15 55.929780 38.064244 0 0 0 0 1 delete
11:44:14 55.929780 38.064253 0 0 0 0 1 delete
11:44:13 55.929776 38.064256 0 0 0 0 1 delete
11:44:12 55.929775 38.064263 0 0 0 0 1 delete
11:44:11 55.929776 38.064271 0 0 0 0 1 delete
11:44:10 55.929775 38.064268 0 0 0 0 1 delete
11:44:09 55.929773 38.064266 0 0 0 0 1 delete
11:44:08 55.929771 38.064261 0 0 0 0 1 delete
11:44:07 55.929770 38.064256 0 0 0 0 1 delete
11:44:06 55.929773 38.064251 0 0 0 0 1 delete
11:44:05 55.929773 38.064251 0 0 0 0 1 delete
11:44:04 55.929760 38.064253 0 0 0 0 1 delete
11:44:03 55.929753 38.064248 0 0 0 0 1 delete
11:44:02 55.929751 38.064244 0 0 0 0 1 delete
11:44:01 55.929751 38.064244 0 0 0 0 1 delete
11:44:00 55.929755 38.064248 0 0 0 0 1 delete
11:43:59 55.929755 38.064248 0 0 0 0 1 delete
11:43:58 55.929763 38.064266 0 0 0 0 1 delete
11:43:57 55.929761 38.064259 0 0 0 0 1 delete
11:43:56 55.929760 38.064253 0 0 0 0 1 delete
11:43:55 55.929758 38.064251 0 0 0 0 1 delete
11:43:54 55.929755 38.064251 0 0 0 0 1 delete
11:43:53 55.929758 38.064228 0 0 0 0 1 delete
11:43:52 55.929763 38.064209 0 0 0 0 1 delete
11:43:51 55.929770 38.064176 0 0 0 0 1 delete
11:43:50 55.929770 38.064161 0 0 0 0 1 delete
11:43:49 55.929773 38.064159 0 0 0 0 1 delete
11:43:48 55.929773 38.064149 0 0 0 0 1 delete
11:43:47 55.929770 38.064148 0 0 0 0 1 delete
11:43:46 55.929765 38.064143 0 0 0 0 1 delete
11:43:45 55.929760 38.064124 0 0 0 0 1 delete
11:43:44 55.929760 38.064124 0 0 0 0 1 delete
11:43:43 55.929758 38.064114 0 0 0 0 1 delete
11:43:42 55.929761 38.064121 0 0 0 0 1 delete
11:43:41 55.929763 38.064144 0 0 0 0 1 delete
11:43:40 55.929764 38.064158 0 0 0 0 1 delete
11:43:39 55.929766 38.064172 0 0 0 0 1 delete
11:43:38 55.929767 38.064185 0 0 0 0 1 delete
11:43:37 55.929769 38.064199 0 0 0 0 1 delete
11:43:36 55.929770 38.064213 0 0 0 0 1 delete
11:43:35 55.929772 38.064227 0 0 0 0 1 delete